createdAt,value
2022-12-12T00:00:20.926Z,5.90
2022-12-12T00:02:47.692Z,4.22
2022-12-12T00:05:15.347Z,4.55
2022-12-12T00:07:42.043Z,4.50
2022-12-12T00:10:09.051Z,2.88
2022-12-12T00:12:35.757Z,2.30
2022-12-12T00:15:02.454Z,2.20
2022-12-12T00:17:29.027Z,3.95
2022-12-12T00:19:55.736Z,2.67
2022-12-12T00:22:22.513Z,4.18
2022-12-12T00:24:49.391Z,5.18
2022-12-12T00:27:15.984Z,2.92
2022-12-12T00:29:42.758Z,3.65
2022-12-12T00:32:09.414Z,3.70
2022-12-12T00:34:36.026Z,3.22
2022-12-12T00:37:02.669Z,5.65
2022-12-12T00:39:29.282Z,3.85
2022-12-12T00:41:55.934Z,3.97
2022-12-12T00:44:22.658Z,4.88
2022-12-12T00:46:49.318Z,3.20
2022-12-12T00:49:16.200Z,4.97
2022-12-12T00:51:43.256Z,2.72
2022-12-12T00:54:10.062Z,4.53
2022-12-12T00:56:36.751Z,3.97
2022-12-12T00:59:03.789Z,3.47
2022-12-12T01:01:31.207Z,5.68
2022-12-12T01:03:59.214Z,2.97
2022-12-12T01:06:26.267Z,2.63
2022-12-12T01:08:53.094Z,3.80
2022-12-12T01:11:20.028Z,8.50
2022-12-12T01:13:47.526Z,6.32
2022-12-12T01:16:14.507Z,5.55
2022-12-12T01:18:41.219Z,5.57
2022-12-12T01:21:12.136Z,4.72
2022-12-12T01:23:38.951Z,4.40
2022-12-12T01:26:08.057Z,2.65
2022-12-12T01:28:35.040Z,2.38
2022-12-12T01:31:02.109Z,2.17
2022-12-12T01:33:28.979Z,4.82
2022-12-12T01:35:55.585Z,4.10
2022-12-12T01:38:22.662Z,5.78
2022-12-12T01:40:49.377Z,4.15
2022-12-12T01:43:16.522Z,5.05
2022-12-12T01:46:08.782Z,4.43
2022-12-12T01:48:40.088Z,3.83
2022-12-12T01:51:09.391Z,6.22
2022-12-12T01:53:36.039Z,2.67
2022-12-12T01:56:03.280Z,3.55
2022-12-12T01:58:30.005Z,3.28
2022-12-12T02:00:56.628Z,3.78
2022-12-12T02:03:23.380Z,2.00
2022-12-12T02:05:52.254Z,5.13
2022-12-12T02:08:20.135Z,8.23
2022-12-12T02:10:47.057Z,6.15
2022-12-12T02:13:19.165Z,5.18
2022-12-12T02:16:24.793Z,2.72
2022-12-12T02:19:22.453Z,5.28
2022-12-12T02:21:54.702Z,3.88
2022-12-12T02:24:30.455Z,4.05
2022-12-12T02:27:24.809Z,4.22
2022-12-12T02:30:05.268Z,6.93
2022-12-12T02:33:02.445Z,4.28
2022-12-12T02:36:08.215Z,4.80
2022-12-12T02:38:49.477Z,2.63
2022-12-12T02:41:30.033Z,5.93
2022-12-12T02:44:15.786Z,5.03
2022-12-12T02:47:13.182Z,3.83
2022-12-12T02:49:41.383Z,3.22
2022-12-12T02:52:09.078Z,2.60
2022-12-12T02:54:35.869Z,4.20
2022-12-12T02:57:03.057Z,3.47
2022-12-12T02:59:39.914Z,3.55
2022-12-12T03:02:21.648Z,3.03
2022-12-12T03:05:38.708Z,3.28
2022-12-12T03:08:28.928Z,4.10
2022-12-12T03:11:09.313Z,4.00
2022-12-12T03:13:56.513Z,5.47
2022-12-12T03:16:33.160Z,5.80
2022-12-12T03:19:10.093Z,5.13
2022-12-12T03:21:47.496Z,3.03
2022-12-12T03:24:34.293Z,5.40
2022-12-12T03:27:04.555Z,9.07
2022-12-12T03:29:48.750Z,17.20
2022-12-12T03:32:22.325Z,9.07
2022-12-12T03:35:14.661Z,7.70
2022-12-12T03:37:47.320Z,5.47
2022-12-12T03:40:24.885Z,7.10
2022-12-12T03:43:05.519Z,4.75
2022-12-12T03:45:44.657Z,6.10
2022-12-12T03:48:15.498Z,5.40
2022-12-12T03:50:50.874Z,3.40
2022-12-12T03:53:36.624Z,2.25
2022-12-12T03:56:09.889Z,6.32
2022-12-12T03:58:56.562Z,3.22
2022-12-12T04:01:27.943Z,2.60
2022-12-12T04:04:18.057Z,7.38
2022-12-12T04:07:11.949Z,7.57
2022-12-12T04:09:57.079Z,10.20
2022-12-12T04:12:58.838Z,8.63
2022-12-12T04:15:34.981Z,3.60
2022-12-12T04:18:25.985Z,4.80
2022-12-12T04:21:29.819Z,4.28
2022-12-12T04:24:14.357Z,9.52
2022-12-12T04:26:52.742Z,6.95
2022-12-12T04:29:19.231Z,7.82
2022-12-12T04:31:50.748Z,2.65
2022-12-12T04:34:31.399Z,6.43
2022-12-12T04:36:58.037Z,3.85
2022-12-12T04:39:24.757Z,3.95
2022-12-12T04:41:51.832Z,4.80
2022-12-12T04:44:18.851Z,7.18
2022-12-12T04:46:45.425Z,4.00
2022-12-12T04:49:14.834Z,10.18
2022-12-12T04:51:43.773Z,7.35
2022-12-12T04:54:23.435Z,4.47
2022-12-12T04:56:53.846Z,4.03
2022-12-12T04:59:20.443Z,5.97
2022-12-12T05:02:05.744Z,5.00
2022-12-12T05:04:55.521Z,4.00
2022-12-12T05:07:48.218Z,4.60
2022-12-12T05:10:17.135Z,3.88
2022-12-12T05:12:57.433Z,6.45
2022-12-12T05:15:24.113Z,12.50
2022-12-12T05:18:01.269Z,11.23
2022-12-12T05:20:28.016Z,9.32
2022-12-12T05:22:54.577Z,11.05
2022-12-12T05:25:21.230Z,7.88
2022-12-12T05:27:48.012Z,4.80
2022-12-12T05:30:14.833Z,8.88
2022-12-12T05:32:41.509Z,7.20
2022-12-12T05:35:08.793Z,14.32
2022-12-12T05:37:35.562Z,20.00
2022-12-12T05:40:02.279Z,10.93
2022-12-12T05:42:28.882Z,13.18
2022-12-12T05:44:55.492Z,9.13
2022-12-12T05:47:22.263Z,7.22
2022-12-12T05:49:48.945Z,6.85
2022-12-12T05:52:15.709Z,6.53
2022-12-12T05:54:42.308Z,13.93
2022-12-12T05:57:09.223Z,74.65
2022-12-12T05:59:35.938Z,46.85
2022-12-12T06:02:02.780Z,55.08
2022-12-12T06:04:29.489Z,160.63
2022-12-12T06:06:56.161Z,70.68
2022-12-12T06:09:22.811Z,26.05
2022-12-12T06:11:49.462Z,20.17
2022-12-12T06:14:16.623Z,14.13
2022-12-12T06:16:43.305Z,26.50
2022-12-12T06:19:09.922Z,20.08
2022-12-12T06:21:36.552Z,23.08
2022-12-12T06:24:05.780Z,15.10
2022-12-12T06:26:32.552Z,94.72
2022-12-12T06:28:59.174Z,84.20
2022-12-12T06:31:25.990Z,95.53
2022-12-12T06:33:52.688Z,53.47
2022-12-12T06:36:26.600Z,134.80
2022-12-12T06:41:29.713Z,25.92
2022-12-12T06:43:56.390Z,25.75
2022-12-12T06:46:24.870Z,35.22
2022-12-12T06:48:51.965Z,78.03
2022-12-12T06:51:20.821Z,21.45
2022-12-12T06:53:47.597Z,12.65
2022-12-12T06:56:18.552Z,14.35
2022-12-12T06:58:45.314Z,53.75
2022-12-12T07:01:12.913Z,40.58
2022-12-12T07:03:39.654Z,46.22
2022-12-12T07:06:06.470Z,21.30
2022-12-12T07:08:34.264Z,32.58
2022-12-12T07:11:09.047Z,16.95
2022-12-12T07:13:35.726Z,20.73
2022-12-12T07:16:02.565Z,14.90
2022-12-12T07:18:29.189Z,20.05
2022-12-12T07:20:55.745Z,16.88
2022-12-12T07:23:22.392Z,15.27
2022-12-12T07:25:49.050Z,14.00
2022-12-12T07:28:15.872Z,16.73
2022-12-12T07:30:45.549Z,36.83
2022-12-12T07:33:12.888Z,23.90
2022-12-12T07:35:39.641Z,25.63
2022-12-12T07:38:06.339Z,40.45
2022-12-12T07:40:33.109Z,40.15
2022-12-12T07:43:00.149Z,38.08
2022-12-12T07:45:26.997Z,31.00
2022-12-12T07:47:53.792Z,19.33
2022-12-12T07:50:20.689Z,22.90
2022-12-12T07:52:47.377Z,20.10
2022-12-12T07:55:14.190Z,16.20
2022-12-12T07:57:41.480Z,24.38
2022-12-12T08:00:09.399Z,14.35
2022-12-12T08:02:36.280Z,12.80
2022-12-12T08:05:02.918Z,17.80
2022-12-12T08:07:29.647Z,11.38
2022-12-12T08:09:56.286Z,11.07
2022-12-12T08:12:23.543Z,15.43
2022-12-12T08:14:50.384Z,16.08
2022-12-12T08:17:16.964Z,15.38
2022-12-12T08:19:43.610Z,10.73
2022-12-12T08:22:10.284Z,11.98
2022-12-12T08:24:37.048Z,9.90
2022-12-12T08:27:03.737Z,7.47
2022-12-12T08:29:30.436Z,12.38
2022-12-12T08:31:57.473Z,9.20
2022-12-12T08:34:24.193Z,11.85
2022-12-12T08:36:50.881Z,13.60
2022-12-12T08:39:17.562Z,15.50
2022-12-12T08:41:46.398Z,12.52
2022-12-12T08:44:13.138Z,9.20
2022-12-12T08:46:39.998Z,6.95
2022-12-12T08:49:06.634Z,8.02
2022-12-12T08:51:34.327Z,7.32
2022-12-12T08:54:00.946Z,6.43
2022-12-12T08:56:27.655Z,19.02
2022-12-12T08:58:54.261Z,8.70
2022-12-12T09:01:23.057Z,11.40
2022-12-12T09:03:50.549Z,14.27
2022-12-12T09:06:17.262Z,14.45
2022-12-12T09:08:43.935Z,10.98
2022-12-12T09:11:10.863Z,11.68
2022-12-12T09:13:37.745Z,17.05
2022-12-12T09:16:05.383Z,14.50
2022-12-12T09:18:32.095Z,14.60
2022-12-12T09:20:58.795Z,11.25
2022-12-12T09:23:26.319Z,15.45
2022-12-12T09:25:53.225Z,5.53
2022-12-12T09:28:20.935Z,13.52
2022-12-12T09:30:47.798Z,5.63
2022-12-12T09:33:14.495Z,3.88
2022-12-12T09:35:41.235Z,9.98
2022-12-12T09:38:13.987Z,5.25
2022-12-12T09:40:53.725Z,21.33
2022-12-12T09:43:29.151Z,11.40
2022-12-12T09:45:56.289Z,10.77
2022-12-12T09:48:42.615Z,6.13
2022-12-12T09:51:10.375Z,6.30
2022-12-12T09:53:37.456Z,16.02
2022-12-12T09:56:12.202Z,16.52
2022-12-12T09:59:06.676Z,5.45
2022-12-12T10:01:58.908Z,9.10
2022-12-12T10:04:32.907Z,10.73
2022-12-12T10:07:10.521Z,22.40
2022-12-12T10:10:07.829Z,10.50
2022-12-12T10:12:34.581Z,8.75
2022-12-12T10:15:03.060Z,9.88
2022-12-12T10:17:38.184Z,4.38
2022-12-12T10:20:05.753Z,7.15
2022-12-12T10:22:43.173Z,8.55
2022-12-12T10:25:20.318Z,5.55
2022-12-12T10:27:47.978Z,4.00
2022-12-12T10:30:17.118Z,3.67
2022-12-12T10:33:10.044Z,6.75
2022-12-12T10:35:54.495Z,11.15
2022-12-12T10:41:10.384Z,4.72
2022-12-12T10:43:54.980Z,15.07
2022-12-12T10:46:25.762Z,12.45
2022-12-12T10:48:52.548Z,5.65
2022-12-12T10:51:20.389Z,7.65
2022-12-12T10:53:47.044Z,4.75
2022-12-12T10:56:27.459Z,6.43
2022-12-12T10:58:55.985Z,8.82
2022-12-12T11:02:00.262Z,9.23
2022-12-12T11:04:16.991Z,6.43
2022-12-12T11:06:46.231Z,13.15
2022-12-12T11:09:17.405Z,5.95
2022-12-12T11:11:57.439Z,5.05
2022-12-12T11:14:36.986Z,5.70
2022-12-12T11:17:07.998Z,3.53
2022-12-12T11:19:38.254Z,12.88
2022-12-12T11:22:04.986Z,8.40
2022-12-12T11:24:32.694Z,8.38
2022-12-12T11:27:00.982Z,5.22
2022-12-12T11:29:45.123Z,6.22
2022-12-12T11:32:35.511Z,5.70
2022-12-12T11:35:03.067Z,5.50
2022-12-12T11:37:39.400Z,6.00
2022-12-12T11:40:06.770Z,10.60
2022-12-12T11:42:34.382Z,9.20
2022-12-12T11:45:22.170Z,7.22
2022-12-12T11:47:48.885Z,6.32
2022-12-12T11:50:18.439Z,8.40
2022-12-12T11:52:45.165Z,5.85
2022-12-12T11:55:16.447Z,6.57
2022-12-12T11:58:05.380Z,6.00
2022-12-12T12:01:16.979Z,7.28
2022-12-12T12:04:30.473Z,2.97
2022-12-12T12:07:05.615Z,3.63
2022-12-12T12:09:56.672Z,2.72
2022-12-12T12:12:28.346Z,8.32
2022-12-12T12:15:00.965Z,2.97
2022-12-12T12:17:45.759Z,2.35
2022-12-12T12:20:12.344Z,6.00
2022-12-12T12:22:57.647Z,3.33
2022-12-12T12:25:39.885Z,11.73
2022-12-12T12:28:47.985Z,9.18
2022-12-12T12:31:41.884Z,19.55
2022-12-12T12:34:08.569Z,7.40
2022-12-12T12:36:48.929Z,8.57
2022-12-12T12:39:27.641Z,6.68
2022-12-12T12:42:06.273Z,3.60
2022-12-12T12:44:37.937Z,3.47
2022-12-12T12:47:36.871Z,6.05
2022-12-12T12:50:16.643Z,6.35
2022-12-12T12:52:47.032Z,6.38
2022-12-12T12:55:16.913Z,3.85
2022-12-12T12:57:44.376Z,3.85
2022-12-12T13:00:18.703Z,2.53
2022-12-12T13:03:16.170Z,2.97
2022-12-12T13:05:45.427Z,2.35
2022-12-12T13:08:44.799Z,4.40
2022-12-12T13:11:18.408Z,2.38
2022-12-12T13:13:45.135Z,5.28
2022-12-12T13:16:19.946Z,4.55
2022-12-12T13:18:48.239Z,3.75
2022-12-12T13:21:22.859Z,3.90
2022-12-12T13:24:06.314Z,4.35
2022-12-12T13:26:46.213Z,4.43
2022-12-12T13:29:40.167Z,5.18
2022-12-12T13:32:26.033Z,12.80
2022-12-12T13:34:54.906Z,7.57
2022-12-12T13:37:21.841Z,3.92
2022-12-12T13:39:58.366Z,3.60
2022-12-12T13:42:25.086Z,5.90
2022-12-12T13:44:51.989Z,119.13
2022-12-12T13:47:24.730Z,237.90
2022-12-12T13:50:09.349Z,47.72
2022-12-12T13:52:41.025Z,25.52
2022-12-12T13:55:13.771Z,17.02
2022-12-12T13:58:02.644Z,20.90
2022-12-12T14:00:38.891Z,21.67
2022-12-12T14:03:11.671Z,18.42
2022-12-12T14:05:44.843Z,10.93
2022-12-12T14:08:11.541Z,5.40
2022-12-12T14:11:00.910Z,10.75
2022-12-12T14:13:32.177Z,4.43
2022-12-12T14:16:21.564Z,5.38
2022-12-12T14:18:51.309Z,8.25
2022-12-12T14:21:19.182Z,5.72
2022-12-12T14:23:50.206Z,54.47
2022-12-12T14:26:28.885Z,23.63
2022-12-12T14:29:17.328Z,23.40
2022-12-12T14:32:11.044Z,63.88
2022-12-12T14:34:52.796Z,41.88
2022-12-12T14:38:27.699Z,47.55
2022-12-12T14:40:57.334Z,119.32
2022-12-12T14:43:29.213Z,59.47
2022-12-12T14:45:59.887Z,62.97
2022-12-12T14:48:34.889Z,171.52
2022-12-12T14:51:14.358Z,65.20
2022-12-12T14:53:50.852Z,133.43
2022-12-12T14:56:22.890Z,153.52
2022-12-12T14:58:59.849Z,122.90
2022-12-12T15:01:34.756Z,55.00
2022-12-12T15:04:07.401Z,199.75
2022-12-12T15:06:39.133Z,60.90
2022-12-12T15:09:08.918Z,59.00
2022-12-12T15:11:35.613Z,47.88
2022-12-12T15:14:02.547Z,47.88
2022-12-12T15:16:32.295Z,63.45
2022-12-12T15:18:59.002Z,90.82
2022-12-12T15:21:25.911Z,112.72
2022-12-12T15:23:52.568Z,46.45
2022-12-12T15:26:20.391Z,76.18
2022-12-12T15:28:47.325Z,61.35
2022-12-12T15:31:16.133Z,70.35
2022-12-12T15:33:43.141Z,38.45
2022-12-12T15:36:21.221Z,51.95
2022-12-12T15:39:02.445Z,98.63
2022-12-12T15:41:29.040Z,43.40
2022-12-12T15:43:55.732Z,46.70
2022-12-12T15:46:22.474Z,34.13
2022-12-12T15:48:52.009Z,27.13
2022-12-12T15:51:24.821Z,58.83
2022-12-12T15:53:51.968Z,49.28
2022-12-12T15:56:21.609Z,56.20
2022-12-12T15:59:06.846Z,54.75
2022-12-12T16:01:33.472Z,59.17
2022-12-12T16:04:10.292Z,44.92
2022-12-12T16:06:46.539Z,48.15
2022-12-12T16:09:26.333Z,43.70
2022-12-12T16:11:53.348Z,41.97
2022-12-12T16:14:41.575Z,52.47
2022-12-12T16:17:25.157Z,39.90
2022-12-12T16:20:01.338Z,52.22
2022-12-12T16:22:31.994Z,48.85
2022-12-12T16:25:21.502Z,51.83
2022-12-12T16:28:11.582Z,44.38
2022-12-12T16:30:39.253Z,51.72
2022-12-12T16:33:29.528Z,45.13
2022-12-12T16:35:56.946Z,27.20
2022-12-12T16:38:23.791Z,23.70
2022-12-12T16:40:51.460Z,35.33
2022-12-12T16:43:19.682Z,33.83
2022-12-12T16:45:46.355Z,17.38
2022-12-12T16:48:20.000Z,18.48
2022-12-12T16:50:47.105Z,27.60
2022-12-12T16:53:13.688Z,27.40
2022-12-12T16:55:41.668Z,32.85
2022-12-12T16:58:08.691Z,24.40
2022-12-12T17:00:35.491Z,20.08
2022-12-12T17:03:02.298Z,24.02
2022-12-12T17:05:29.147Z,30.48
2022-12-12T17:07:55.844Z,23.92
2022-12-12T17:10:24.631Z,20.38
2022-12-12T17:12:54.810Z,25.77
2022-12-12T17:15:23.641Z,31.80
2022-12-12T17:17:50.453Z,43.17
2022-12-12T17:20:17.820Z,53.03
2022-12-12T17:22:44.964Z,23.25
2022-12-12T17:25:11.735Z,15.35
2022-12-12T17:27:38.377Z,15.77
2022-12-12T17:30:06.053Z,22.30
2022-12-12T17:32:33.534Z,28.15
2022-12-12T17:35:00.401Z,26.15
2022-12-12T17:37:27.152Z,25.70
2022-12-12T17:39:54.324Z,25.55
2022-12-12T17:42:21.039Z,29.85
2022-12-12T17:44:48.179Z,44.00
2022-12-12T17:47:14.771Z,27.67
2022-12-12T17:49:41.495Z,27.10
2022-12-12T17:52:08.180Z,28.00
2022-12-12T17:54:36.219Z,18.50
2022-12-12T17:57:02.864Z,31.25
2022-12-12T17:59:29.503Z,48.13
2022-12-12T18:01:56.113Z,18.95
2022-12-12T18:04:27.599Z,22.40
2022-12-12T18:06:54.799Z,24.17
2022-12-12T18:09:21.512Z,24.17
2022-12-12T18:11:48.316Z,11.60
2022-12-12T18:14:16.115Z,15.82
2022-12-12T18:16:43.487Z,13.85
2022-12-12T18:19:10.277Z,15.63
2022-12-12T18:22:00.300Z,14.45
2022-12-12T18:24:24.525Z,16.63
2022-12-12T18:26:55.486Z,63.05
2022-12-12T18:29:22.397Z,34.17
2022-12-12T18:31:49.029Z,42.47
2022-12-12T18:34:15.814Z,38.53
2022-12-12T18:36:42.589Z,43.40
2022-12-12T18:39:09.204Z,41.45
2022-12-12T18:41:38.840Z,37.90
2022-12-12T18:44:10.775Z,36.45
2022-12-12T18:46:42.623Z,34.28
2022-12-12T18:49:15.422Z,22.73
2022-12-12T18:51:42.544Z,16.88
2022-12-12T18:54:14.621Z,13.43
2022-12-12T18:56:42.127Z,16.33
2022-12-12T18:59:08.748Z,18.15
2022-12-12T19:01:35.990Z,7.00
2022-12-12T19:04:10.499Z,4.20
2022-12-12T19:06:38.203Z,8.00
2022-12-12T19:09:07.014Z,5.38
2022-12-12T19:11:34.917Z,5.10
2022-12-12T19:14:01.868Z,3.38
2022-12-12T19:16:28.622Z,3.45
2022-12-12T19:18:55.226Z,1.60
2022-12-12T19:21:24.854Z,6.07
2022-12-12T19:23:51.850Z,3.80
2022-12-12T19:26:26.756Z,10.20
2022-12-12T19:29:00.787Z,7.45
2022-12-12T19:33:54.094Z,12.27
2022-12-12T19:36:22.177Z,5.55
2022-12-12T19:38:49.125Z,1.67
2022-12-12T19:41:17.890Z,1.08
2022-12-12T19:43:45.339Z,0.60
2022-12-12T19:46:13.312Z,0.95
2022-12-12T19:48:40.080Z,0.80
2022-12-12T19:51:08.775Z,2.15
2022-12-12T19:53:39.575Z,1.23
2022-12-12T19:56:06.485Z,1.58
2022-12-12T19:58:38.139Z,5.95
2022-12-12T20:01:18.729Z,1.05
2022-12-12T20:03:49.816Z,4.00
2022-12-12T20:06:16.564Z,1.23
2022-12-12T20:08:43.266Z,5.68
2022-12-12T20:11:11.477Z,27.70
2022-12-12T20:13:38.294Z,32.92
2022-12-12T20:16:11.891Z,28.60
2022-12-12T20:18:38.586Z,11.38
2022-12-12T20:21:05.573Z,140.95
2022-12-12T20:23:34.461Z,35.58
2022-12-12T20:26:18.461Z,14.73
2022-12-12T20:28:46.009Z,19.85
2022-12-12T20:31:23.412Z,13.20
2022-12-12T20:33:50.492Z,32.42
2022-12-12T20:36:21.815Z,36.95
2022-12-12T20:38:48.594Z,64.57
2022-12-12T20:41:16.384Z,9.38
2022-12-12T20:43:43.217Z,2.05
2022-12-12T20:46:12.094Z,17.50
2022-12-12T20:48:39.256Z,6.15
2022-12-12T20:51:24.806Z,5.00
2022-12-12T20:53:53.990Z,4.55
2022-12-12T20:56:21.742Z,4.55
2022-12-12T20:58:48.552Z,3.17
2022-12-12T21:01:16.812Z,2.38
2022-12-12T21:03:43.966Z,8.02
2022-12-12T21:06:20.780Z,1.38
2022-12-12T21:08:47.787Z,0.50
2022-12-12T21:11:15.518Z,3.35
2022-12-12T21:13:42.658Z,1.20
2022-12-12T21:16:22.685Z,0.93
2022-12-12T21:18:50.414Z,0.60
2022-12-12T21:21:16.983Z,0.50
2022-12-12T21:23:43.784Z,1.02
2022-12-12T21:26:19.735Z,0.60
2022-12-12T21:28:48.621Z,1.17
2022-12-12T21:31:20.020Z,0.80
2022-12-12T21:33:46.801Z,1.08
2022-12-12T21:36:15.865Z,1.88
2022-12-12T21:38:42.558Z,0.77
2022-12-12T21:41:17.102Z,0.82
2022-12-12T21:43:45.725Z,0.98
2022-12-12T21:46:20.749Z,0.75
2022-12-12T21:49:08.007Z,0.60
2022-12-12T21:51:35.263Z,0.90
2022-12-12T21:54:05.426Z,1.10
2022-12-12T21:56:32.178Z,1.17
2022-12-12T21:58:58.910Z,1.10
2022-12-12T22:01:25.647Z,1.10
2022-12-12T22:03:53.379Z,0.98
2022-12-12T22:06:22.004Z,1.20
2022-12-12T22:08:48.731Z,1.05
2022-12-12T22:11:40.090Z,0.98
2022-12-12T22:14:02.811Z,1.65
2022-12-12T22:16:33.434Z,2.67
2022-12-12T22:19:05.560Z,4.60
2022-12-12T22:21:32.855Z,3.03
2022-12-12T22:23:59.569Z,1.58
2022-12-12T22:26:31.279Z,1.52
2022-12-12T22:28:59.741Z,1.55
2022-12-12T22:31:28.125Z,1.48
2022-12-12T22:34:00.318Z,1.13
2022-12-12T22:36:31.502Z,1.75
2022-12-12T22:38:58.789Z,1.65
2022-12-12T22:41:26.089Z,1.35
2022-12-12T22:43:54.136Z,1.88
2022-12-12T22:46:20.938Z,1.95
2022-12-12T22:48:47.615Z,1.83
2022-12-12T22:51:14.781Z,1.73
2022-12-12T22:53:44.352Z,2.15
2022-12-12T22:56:11.884Z,2.03
2022-12-12T22:58:38.648Z,1.88
2022-12-12T23:01:18.878Z,3.55
2022-12-12T23:03:45.569Z,2.90
2022-12-12T23:06:15.794Z,3.33
2022-12-12T23:08:42.713Z,3.63
2022-12-12T23:11:13.927Z,3.63
2022-12-12T23:13:44.272Z,3.30
2022-12-12T23:16:18.919Z,3.92
2022-12-12T23:18:46.007Z,3.85
2022-12-12T23:21:17.046Z,3.97
2022-12-12T23:23:44.797Z,4.35
2022-12-12T23:26:16.709Z,4.57
2022-12-12T23:28:43.611Z,3.90
2022-12-12T23:31:11.455Z,3.85
2022-12-12T23:33:38.300Z,4.32
2022-12-12T23:36:07.621Z,3.63
2022-12-12T23:38:34.559Z,3.97
2022-12-12T23:41:09.276Z,5.30
2022-12-12T23:43:35.971Z,4.65
2022-12-12T23:46:04.403Z,5.25
2022-12-12T23:48:31.254Z,4.40
2022-12-12T23:50:58.486Z,4.50
2022-12-12T23:53:25.417Z,4.45
2022-12-12T23:55:52.099Z,3.70
2022-12-12T23:58:18.854Z,5.32
